Terminal Aerodrome Forecast
Issued by NWS Charleston, WV

Current Version | Previous Version | Graphics & Text | Print | Product List | Glossary On
Versions: 1 2 3 4 5 6 7 8 9 10 11 12 13 14 15 16 17 18 19 20 21 22
000
FTUS41 KRLX 242300
TAFHTS
TAF
KHTS 242334Z 2500/2524 25019G33KT P6SM OVC035
     FM250200 25014G24KT P6SM OVC025
     FM250400 25012G22KT P6SM OVC015
     FM251300 26011G15KT P6SM OVC030
     FM251600 25009G14KT P6SM BKN035
     FM252100 24007KT P6SM SCT050=

USA.gov is the U.S. government's official web portal to all federal, state and local government web resources and services.